Sunday, October 22, 2017, 5:04 PM EDT
Back to Local

KASH, Nashua, Boire Field Airport

Location: Nashua, NH, United States Lat: 42.782
Local Time: 5:04 PM EDT (21:04 GMT) Lon: -71.515
Time Zone: US/Eastern Elev: 200 ft

Show me the last for .
Show Decoded

2017-10-22 15:56 METAR KASH 221956Z 13007KT 10SM CLR 22/13 A3038 RMK AO2 SLP298 T02220133 =
2017-10-22 14:56 METAR KASH 221856Z 15006KT 10SM CLR 24/11 A3037 RMK AO2 SLP296 T02390106 =
2017-10-22 13:56 METAR KASH 221756Z 00000KT 10SM CLR 23/11 A3038 RMK AO2 SLP298 T02330106 10233
                 20072 58015 =
2017-10-22 12:56 METAR KASH 221656Z 00000KT 10SM CLR 22/12 A3040 RMK AO2 SLP303 T02220117 =
2017-10-22 11:56 METAR KASH 221556Z VRB03KT 10SM CLR 20/12 A3042 RMK AO2 SLP310 T02000117 =
2017-10-22 10:56 METAR KASH 221456Z 07003KT 10SM CLR 18/11 A3042 RMK AO2 SLP313 T01780106 50005 =
2017-10-22 09:56 METAR KASH 221356Z 00000KT 10SM CLR 14/09 A3042 RMK AO2 SLP314 T01390094 =
2017-10-22 08:56 METAR KASH 221256Z 31003KT 10SM CLR 10/08 A3043 RMK AO2 SLP314 T01000083 =
2017-10-22 07:56 METAR KASH 221156Z 00000KT 10SM CLR 08/07 A3041 RMK AO2 SLP309 T00780067 10094
                 20067 53018 =
2017-10-22 06:56 METAR KASH 221056Z 00000KT 10SM CLR 07/06 A3038 RMK AO2 SLP298 T00720061 =
2017-10-22 05:56 METAR KASH 220956Z AUTO 30003KT 10SM CLR 08/08 A3037 RMK AO2 SLP294 T00830078 =
2017-10-22 04:56 METAR KASH 220856Z AUTO 00000KT 10SM CLR 09/08 A3035 RMK AO2 SLP289 T00890078
                 53005 =
2017-10-22 03:56 METAR KASH 220756Z AUTO 30004KT 10SM CLR 08/07 A3035 RMK AO2 SLP287 T00830072 =
2017-10-22 02:56 METAR KASH 220656Z AUTO 00000KT 10SM CLR 08/08 A3034 RMK AO2 SLP284 T00830078 =
2017-10-22 01:56 METAR KASH 220556Z AUTO 30003KT 10SM CLR 09/08 A3034 RMK AO2 SLP284 T00940083
                 10161 20094 53003 =
2017-10-22 00:56 METAR KASH 220456Z AUTO 00000KT 10SM CLR 10/08 A3033 RMK AO2 SLP282 T01000083 =
2017-10-21 23:56 METAR KASH 220356Z AUTO 29003KT 10SM CLR 11/09 A3033 RMK AO2 SLP281 T01110089
                 402500039 =
2017-10-21 21:56 METAR KASH 220156Z AUTO 00000KT 10SM CLR 13/09 A3032 RMK AO2 SLP278 T01280094 =
2017-10-21 20:56 METAR KASH 220056Z 31003KT 10SM CLR 15/09 A3031 RMK AO2 SLP274 T01500094 =
2017-10-21 19:56 METAR KASH 212356Z 00000KT 10SM CLR 16/10 A3030 RMK AO2 SLP272 T01610100 10250
                 20161 51016 =
2017-10-21 18:56 METAR KASH 212256Z 27004KT 10SM CLR 19/08 A3029 RMK AO2 SLP268 T01940083 =
2017-10-21 17:56 METAR KASH 212156Z COR VRB03KT 10SM CLR 20/09 A3027 RMK AO2 SLP262 T02000094 =

Support USWX by starting your Amazon purchase here.